createdAt,value
2023-05-10T00:01:49.126Z,15.98
2023-05-10T00:04:17.167Z,13.20
2023-05-10T00:06:45.026Z,22.98
2023-05-10T00:09:12.720Z,20.77
2023-05-10T00:11:40.561Z,18.90
2023-05-10T00:14:08.169Z,19.58
2023-05-10T00:16:36.564Z,17.48
2023-05-10T00:19:04.366Z,21.20
2023-05-10T00:21:33.631Z,19.13
2023-05-10T00:24:01.461Z,21.50
2023-05-10T00:26:29.338Z,26.13
2023-05-10T00:28:59.699Z,23.00
2023-05-10T00:31:27.756Z,20.52
2023-05-10T00:33:56.077Z,17.85
2023-05-10T00:36:24.277Z,16.25
2023-05-10T00:38:51.963Z,16.10
2023-05-10T00:41:20.039Z,20.90
2023-05-10T00:43:48.871Z,13.32
2023-05-10T00:46:18.714Z,21.45
2023-05-10T00:48:46.908Z,15.82
2023-05-10T00:51:15.632Z,19.88
2023-05-10T00:53:43.312Z,15.32
2023-05-10T00:56:11.938Z,18.30
2023-05-10T00:58:40.823Z,22.75
2023-05-10T01:01:10.428Z,16.85
2023-05-10T01:03:38.160Z,18.33
2023-05-10T01:06:06.607Z,20.00
2023-05-10T01:08:34.325Z,22.60
2023-05-10T01:11:02.639Z,20.35
2023-05-10T01:13:36.152Z,20.30
2023-05-10T01:16:04.929Z,25.35
2023-05-10T01:18:34.691Z,23.20
2023-05-10T01:21:23.043Z,20.20
2023-05-10T01:24:28.156Z,21.52
2023-05-10T01:27:18.356Z,17.92
2023-05-10T01:29:46.246Z,18.40
2023-05-10T01:32:46.196Z,19.30
2023-05-10T01:35:21.578Z,20.98
2023-05-10T01:38:23.924Z,24.50
2023-05-10T01:41:16.966Z,17.90
2023-05-10T01:43:55.888Z,16.38
2023-05-10T01:46:34.989Z,18.23
2023-05-10T01:49:05.098Z,18.15
2023-05-10T01:51:50.443Z,16.40
2023-05-10T01:54:21.055Z,17.90
2023-05-10T01:56:54.519Z,20.52
2023-05-10T01:59:23.411Z,14.80
2023-05-10T02:01:53.005Z,14.07
2023-05-10T02:04:23.628Z,20.40
2023-05-10T02:06:52.994Z,19.88
2023-05-10T02:09:22.026Z,14.38
2023-05-10T02:11:50.446Z,14.75
2023-05-10T02:14:18.928Z,14.10
2023-05-10T02:16:47.055Z,15.07
2023-05-10T02:19:15.466Z,15.43
2023-05-10T02:21:43.107Z,17.70
2023-05-10T02:24:12.376Z,13.35
2023-05-10T02:26:39.791Z,16.50
2023-05-10T02:29:09.246Z,13.20
2023-05-10T02:31:39.870Z,14.23
2023-05-10T02:34:10.351Z,14.07
2023-05-10T02:36:39.903Z,12.52
2023-05-10T02:39:11.517Z,12.95
2023-05-10T02:41:39.472Z,12.02
2023-05-10T02:44:09.065Z,14.93
2023-05-10T02:46:38.260Z,14.43
2023-05-10T02:49:07.088Z,15.02
2023-05-10T02:51:39.090Z,12.27
2023-05-10T02:54:14.396Z,13.05
2023-05-10T02:56:53.137Z,9.75
2023-05-10T02:59:21.672Z,14.43
2023-05-10T03:01:49.454Z,15.70
2023-05-10T03:04:17.480Z,21.23
2023-05-10T03:06:46.099Z,12.48
2023-05-10T03:09:16.613Z,13.43
2023-05-10T03:11:50.100Z,13.32
2023-05-10T03:14:30.687Z,12.43
2023-05-10T03:17:02.759Z,12.85
2023-05-10T03:19:45.397Z,16.60
2023-05-10T03:22:14.391Z,15.68
2023-05-10T03:24:43.846Z,12.25
2023-05-10T03:27:11.674Z,14.80
2023-05-10T03:29:41.152Z,12.48
2023-05-10T03:32:09.618Z,13.05
2023-05-10T03:34:43.351Z,14.18
2023-05-10T03:37:11.749Z,14.57
2023-05-10T03:39:39.653Z,13.70
2023-05-10T03:42:09.926Z,15.00
2023-05-10T03:44:38.777Z,13.20
2023-05-10T03:47:06.762Z,11.48
2023-05-10T03:49:34.837Z,10.98
2023-05-10T03:52:03.939Z,11.35
2023-05-10T03:54:33.595Z,9.88
2023-05-10T03:57:02.138Z,17.05
2023-05-10T03:59:31.971Z,12.02
2023-05-10T04:01:59.805Z,14.30
2023-05-10T04:04:28.158Z,10.43
2023-05-10T04:06:56.164Z,18.27
2023-05-10T04:09:24.557Z,12.45
2023-05-10T04:11:52.317Z,18.40
2023-05-10T04:14:20.214Z,13.15
2023-05-10T04:16:48.009Z,16.48
2023-05-10T04:19:16.582Z,11.02
2023-05-10T04:21:44.954Z,11.52
2023-05-10T04:24:13.789Z,13.25
2023-05-10T04:26:41.630Z,11.00
2023-05-10T04:29:09.975Z,17.45
2023-05-10T04:31:37.617Z,9.70
2023-05-10T04:34:05.584Z,16.75
2023-05-10T04:36:38.090Z,16.38
2023-05-10T04:39:07.093Z,11.45
2023-05-10T04:41:35.258Z,11.60
2023-05-10T04:44:03.357Z,16.52
2023-05-10T04:46:30.838Z,14.70
2023-05-10T04:48:58.534Z,14.40
2023-05-10T04:51:26.184Z,11.30
2023-05-10T04:54:05.268Z,17.73
2023-05-10T04:56:34.641Z,9.77
2023-05-10T04:59:02.762Z,19.20
2023-05-10T05:01:30.582Z,11.02
2023-05-10T05:03:58.465Z,10.75
2023-05-10T05:06:26.938Z,15.85
2023-05-10T05:08:54.729Z,12.48
2023-05-10T05:11:22.419Z,8.82
2023-05-10T05:13:50.164Z,18.95
2023-05-10T05:16:18.265Z,12.55
2023-05-10T05:18:46.288Z,15.50
2023-05-10T05:21:21.442Z,15.25
2023-05-10T05:23:49.655Z,13.15
2023-05-10T05:26:17.354Z,13.73
2023-05-10T05:28:45.305Z,7.85
2023-05-10T05:31:13.398Z,11.30
2023-05-10T05:33:41.733Z,13.77
2023-05-10T05:36:10.132Z,9.65
2023-05-10T05:38:38.221Z,9.30
2023-05-10T05:41:06.864Z,11.13
2023-05-10T05:43:38.043Z,10.50
2023-05-10T05:46:06.485Z,9.32
2023-05-10T05:48:34.732Z,13.88
2023-05-10T05:51:04.692Z,13.60
2023-05-10T05:53:34.956Z,9.00
2023-05-10T05:56:03.092Z,11.00
2023-05-10T05:58:30.570Z,12.18
2023-05-10T06:00:58.890Z,7.30
2023-05-10T06:03:26.615Z,9.55
2023-05-10T06:05:54.858Z,12.43
2023-05-10T06:08:22.812Z,10.98
2023-05-10T06:10:50.871Z,10.45
2023-05-10T06:13:18.862Z,6.15
2023-05-10T06:15:46.972Z,10.10
2023-05-10T06:18:14.878Z,10.55
2023-05-10T06:20:43.836Z,4.55
2023-05-10T06:23:11.355Z,6.50
2023-05-10T06:25:39.678Z,9.88
2023-05-10T06:28:07.525Z,6.55
2023-05-10T06:30:37.851Z,10.07
2023-05-10T06:33:05.631Z,7.18
2023-05-10T06:35:34.841Z,11.27
2023-05-10T06:38:02.535Z,8.18
2023-05-10T06:40:30.997Z,10.48
2023-05-10T06:42:58.727Z,9.45
2023-05-10T06:45:26.597Z,10.25
2023-05-10T06:47:54.353Z,11.00
2023-05-10T06:50:23.978Z,10.70
2023-05-10T06:52:53.049Z,6.97
2023-05-10T06:55:21.366Z,7.00
2023-05-10T06:57:49.352Z,12.32
2023-05-10T07:00:18.737Z,10.20
2023-05-10T07:02:47.240Z,6.32
2023-05-10T07:05:16.584Z,7.10
2023-05-10T07:07:44.679Z,55.03
2023-05-10T07:10:13.136Z,10.15
2023-05-10T07:12:40.987Z,12.90
2023-05-10T07:15:09.947Z,10.85
2023-05-10T07:17:37.871Z,15.45
2023-05-10T07:20:06.981Z,6.88
2023-05-10T07:22:35.099Z,7.13
2023-05-10T07:25:04.141Z,9.07
2023-05-10T07:27:31.846Z,11.27
2023-05-10T07:29:59.941Z,8.85
2023-05-10T07:32:28.243Z,5.32
2023-05-10T07:34:56.885Z,4.22
2023-05-10T07:37:24.675Z,10.98
2023-05-10T07:39:52.593Z,11.88
2023-05-10T07:42:20.286Z,5.97
2023-05-10T07:44:48.561Z,3.28
2023-05-10T07:47:16.280Z,5.45
2023-05-10T07:49:44.637Z,6.40
2023-05-10T07:52:12.353Z,6.53
2023-05-10T07:54:40.673Z,6.55
2023-05-10T07:57:08.462Z,9.15
2023-05-10T07:59:36.411Z,3.95
2023-05-10T08:02:04.371Z,4.95
2023-05-10T08:04:33.340Z,15.50
2023-05-10T08:07:00.864Z,9.70
2023-05-10T08:09:28.776Z,10.80
2023-05-10T08:11:56.629Z,8.95
2023-05-10T08:14:24.760Z,7.40
2023-05-10T08:16:52.966Z,5.10
2023-05-10T08:19:22.538Z,11.13
2023-05-10T08:21:50.379Z,6.47
2023-05-10T08:24:18.198Z,8.65
2023-05-10T08:26:45.907Z,6.28
2023-05-10T08:29:14.232Z,3.70
2023-05-10T08:31:41.871Z,6.25
2023-05-10T08:34:11.706Z,7.72
2023-05-10T08:36:41.281Z,10.25
2023-05-10T08:39:16.236Z,5.10
2023-05-10T08:41:53.227Z,5.30
2023-05-10T08:44:22.143Z,5.40
2023-05-10T08:46:53.502Z,4.28
2023-05-10T08:49:23.270Z,4.35
2023-05-10T08:51:55.105Z,2.45
2023-05-10T08:54:23.685Z,4.78
2023-05-10T08:56:51.658Z,11.88
2023-05-10T08:59:20.093Z,4.90
2023-05-10T09:01:50.583Z,9.23
2023-05-10T09:04:18.858Z,7.45
2023-05-10T09:06:46.737Z,7.10
2023-05-10T09:09:16.427Z,18.10
2023-05-10T09:11:45.001Z,6.10
2023-05-10T09:14:14.284Z,5.90
2023-05-10T09:16:42.677Z,4.32
2023-05-10T09:19:11.407Z,4.93
2023-05-10T09:21:39.953Z,4.97
2023-05-10T09:24:10.848Z,9.20
2023-05-10T09:26:52.786Z,4.80
2023-05-10T09:29:22.725Z,13.38
2023-05-10T09:31:53.000Z,6.15
2023-05-10T09:34:30.860Z,7.25
2023-05-10T09:37:02.249Z,13.68
2023-05-10T09:39:38.750Z,9.10
2023-05-10T09:42:08.490Z,11.13
2023-05-10T09:44:39.209Z,7.10
2023-05-10T09:47:10.498Z,5.78
2023-05-10T09:49:39.359Z,4.28
2023-05-10T09:52:09.032Z,5.95
2023-05-10T09:54:37.657Z,5.45
2023-05-10T09:57:05.303Z,9.18
2023-05-10T09:59:36.083Z,6.07
2023-05-10T10:02:04.078Z,13.07
2023-05-10T10:04:33.333Z,4.40
2023-05-10T10:07:05.237Z,6.35
2023-05-10T10:09:34.766Z,5.85
2023-05-10T10:12:03.828Z,5.90
2023-05-10T10:14:32.276Z,3.33
2023-05-10T10:22:02.001Z,3.65
2023-05-10T10:24:30.463Z,8.27
2023-05-10T10:27:19.218Z,6.57
2023-05-10T10:30:14.858Z,8.38
2023-05-10T10:33:05.633Z,5.65
2023-05-10T10:35:40.476Z,6.70
2023-05-10T10:38:10.785Z,5.50
2023-05-10T10:40:39.578Z,7.68
2023-05-10T10:43:26.966Z,6.53
2023-05-10T10:46:18.888Z,5.20
2023-05-10T10:48:52.734Z,5.85
2023-05-10T10:51:20.839Z,6.30
2023-05-10T10:53:49.511Z,9.38
2023-05-10T10:56:24.929Z,10.98
2023-05-10T10:58:54.904Z,11.43
2023-05-10T11:01:23.321Z,21.65
2023-05-10T11:04:09.804Z,8.75
2023-05-10T11:06:38.288Z,15.15
2023-05-10T11:09:10.212Z,5.60
2023-05-10T11:11:39.405Z,9.32
2023-05-10T11:14:08.280Z,9.98
2023-05-10T11:16:46.367Z,5.65
2023-05-10T11:19:15.461Z,11.75
2023-05-10T11:21:51.898Z,8.10
2023-05-10T11:24:24.462Z,10.25
2023-05-10T11:26:53.286Z,6.22
2023-05-10T11:29:21.880Z,13.32
2023-05-10T11:31:50.979Z,5.30
2023-05-10T11:34:31.297Z,7.95
2023-05-10T11:36:59.659Z,9.15
2023-05-10T11:39:31.988Z,8.35
2023-05-10T11:42:00.944Z,6.13
2023-05-10T11:44:32.860Z,9.93
2023-05-10T11:47:02.491Z,11.65
2023-05-10T11:49:31.083Z,6.63
2023-05-10T11:52:09.510Z,7.18
2023-05-10T11:54:37.546Z,2.33
2023-05-10T11:57:06.289Z,6.90
2023-05-10T11:59:33.974Z,8.60
2023-05-10T12:02:02.448Z,7.75
2023-05-10T12:04:31.328Z,4.28
2023-05-10T12:06:59.929Z,3.20
2023-05-10T12:09:42.589Z,12.48
2023-05-10T12:12:17.301Z,6.05
2023-05-10T12:14:45.266Z,6.60
2023-05-10T12:17:14.862Z,8.85
2023-05-10T12:19:42.975Z,9.85
2023-05-10T12:22:11.402Z,5.88
2023-05-10T12:24:40.071Z,6.53
2023-05-10T12:30:01.316Z,5.07
2023-05-10T12:32:48.528Z,12.00
2023-05-10T12:35:17.213Z,6.40
2023-05-10T12:37:45.653Z,11.23
2023-05-10T12:40:13.393Z,6.25
2023-05-10T12:42:41.887Z,10.05
2023-05-10T12:45:10.165Z,6.07
2023-05-10T12:47:39.870Z,7.03
2023-05-10T12:50:09.086Z,4.55
2023-05-10T12:52:37.667Z,9.45
2023-05-10T12:55:05.557Z,9.25
2023-05-10T12:57:33.382Z,6.15
2023-05-10T13:00:01.146Z,6.53
2023-05-10T13:02:29.532Z,2.90
2023-05-10T13:04:57.609Z,8.77
2023-05-10T13:07:25.990Z,11.18
2023-05-10T13:09:53.791Z,8.50
2023-05-10T13:12:22.253Z,10.63
2023-05-10T13:14:49.725Z,6.10
2023-05-10T13:17:18.113Z,8.93
2023-05-10T13:19:46.419Z,6.97
2023-05-10T13:22:17.124Z,4.10
2023-05-10T13:24:46.782Z,9.93
2023-05-10T13:27:15.397Z,9.07
2023-05-10T13:29:44.797Z,2.60
2023-05-10T13:32:13.822Z,3.63
2023-05-10T13:34:41.667Z,7.03
2023-05-10T13:37:09.875Z,8.48
2023-05-10T13:39:39.004Z,3.92
2023-05-10T13:42:07.152Z,3.85
2023-05-10T13:44:35.230Z,6.45
2023-05-10T13:47:04.118Z,13.30
2023-05-10T13:49:32.654Z,3.38
2023-05-10T13:52:08.135Z,6.32
2023-05-10T13:54:36.989Z,2.83
2023-05-10T13:57:05.772Z,9.40
2023-05-10T13:59:34.352Z,4.80
2023-05-10T14:02:05.805Z,10.05
2023-05-10T14:04:35.514Z,3.92
2023-05-10T14:07:03.516Z,6.00
2023-05-10T14:09:31.956Z,8.00
2023-05-10T14:11:59.956Z,8.45
2023-05-10T14:14:28.094Z,9.30
2023-05-10T14:16:56.115Z,6.32
2023-05-10T14:19:23.919Z,6.28
2023-05-10T14:21:53.452Z,6.45
2023-05-10T14:24:21.655Z,30.05
2023-05-10T14:26:49.949Z,7.65
2023-05-10T14:29:17.891Z,4.70
2023-05-10T14:31:46.102Z,22.55
2023-05-10T14:34:13.842Z,5.47
2023-05-10T14:36:41.845Z,16.48
2023-05-10T14:39:11.038Z,7.38
2023-05-10T14:41:40.604Z,8.10
2023-05-10T14:44:08.359Z,3.33
2023-05-10T14:46:37.043Z,3.88
2023-05-10T14:49:05.223Z,11.90
2023-05-10T14:51:33.646Z,9.80
2023-05-10T14:54:02.150Z,10.15
2023-05-10T14:56:30.747Z,5.35
2023-05-10T14:58:58.794Z,6.85
2023-05-10T15:01:27.117Z,5.15
2023-05-10T15:03:55.406Z,5.65
2023-05-10T15:06:33.174Z,7.05
2023-05-10T15:09:00.944Z,8.50
2023-05-10T15:11:28.974Z,5.32
2023-05-10T15:13:56.669Z,5.68
2023-05-10T15:16:25.500Z,5.55
2023-05-10T15:18:53.243Z,4.90
2023-05-10T15:21:22.913Z,5.85
2023-05-10T15:23:50.537Z,4.07
2023-05-10T15:26:18.926Z,7.80
2023-05-10T15:28:47.392Z,12.02
2023-05-10T15:31:15.754Z,4.32
2023-05-10T15:33:43.497Z,4.05
2023-05-10T15:36:11.733Z,8.82
2023-05-10T15:38:39.442Z,2.95
2023-05-10T15:41:07.760Z,2.72
2023-05-10T15:43:35.602Z,5.13
2023-05-10T15:46:03.947Z,4.35
2023-05-10T15:48:32.552Z,5.10
2023-05-10T15:51:00.624Z,3.13
2023-05-10T15:53:28.463Z,4.45
2023-05-10T15:55:58.625Z,3.92
2023-05-10T15:58:27.517Z,5.72
2023-05-10T16:00:55.873Z,4.78
2023-05-10T16:03:23.794Z,7.25
2023-05-10T16:05:52.208Z,2.83
2023-05-10T16:08:20.001Z,3.33
2023-05-10T16:10:49.750Z,9.40
2023-05-10T16:13:17.762Z,6.28
2023-05-10T16:15:45.968Z,7.25
2023-05-10T16:18:13.668Z,6.60
2023-05-10T16:20:42.308Z,3.70
2023-05-10T16:23:11.914Z,9.32
2023-05-10T16:25:40.116Z,4.80
2023-05-10T16:28:08.244Z,3.58
2023-05-10T16:30:36.578Z,4.93
2023-05-10T16:33:04.831Z,2.38
2023-05-10T16:35:33.435Z,5.35
2023-05-10T16:38:02.015Z,3.50
2023-05-10T16:40:31.726Z,4.32
2023-05-10T16:42:59.667Z,4.75
2023-05-10T16:45:28.125Z,6.72
2023-05-10T16:47:55.860Z,7.50
2023-05-10T16:50:24.496Z,3.80
2023-05-10T16:52:52.238Z,6.68
2023-05-10T16:55:20.864Z,5.43
2023-05-10T16:57:49.620Z,3.70
2023-05-10T17:00:18.171Z,7.55
2023-05-10T17:02:46.040Z,7.90
2023-05-10T17:05:14.822Z,4.53
2023-05-10T17:07:42.824Z,5.50
2023-05-10T17:10:11.949Z,4.38
2023-05-10T17:12:39.797Z,5.72
2023-05-10T17:15:09.357Z,3.13
2023-05-10T17:17:37.586Z,5.47
2023-05-10T17:20:09.025Z,6.85
2023-05-10T17:22:38.592Z,7.10
2023-05-10T17:25:08.073Z,6.28
2023-05-10T17:27:35.756Z,4.55
2023-05-10T17:30:04.187Z,5.80
2023-05-10T17:32:32.001Z,4.72
2023-05-10T17:35:00.138Z,8.50
2023-05-10T17:37:27.639Z,5.80
2023-05-10T17:39:55.978Z,9.05
2023-05-10T17:42:23.811Z,3.17
2023-05-10T17:44:51.965Z,4.47
2023-05-10T17:47:20.117Z,5.07
2023-05-10T17:49:48.428Z,4.97
2023-05-10T17:52:16.610Z,6.07
2023-05-10T17:54:44.624Z,5.15
2023-05-10T17:57:12.254Z,6.80
2023-05-10T17:59:40.632Z,5.03
2023-05-10T18:02:08.290Z,7.50
2023-05-10T18:04:40.247Z,6.40
2023-05-10T18:07:09.799Z,7.88
2023-05-10T18:09:38.247Z,8.55
2023-05-10T18:12:07.450Z,3.80
2023-05-10T18:14:41.200Z,9.70
2023-05-10T18:17:09.880Z,5.75
2023-05-10T18:19:38.367Z,7.57
2023-05-10T18:22:08.148Z,4.82
2023-05-10T18:24:40.288Z,6.75
2023-05-10T18:27:13.055Z,8.15
2023-05-10T18:29:41.976Z,5.60
2023-05-10T18:32:09.712Z,4.65
2023-05-10T18:34:38.078Z,38.67
2023-05-10T18:37:08.075Z,38.85
2023-05-10T18:39:39.455Z,28.42
2023-05-10T18:42:11.521Z,19.25
2023-05-10T18:44:41.689Z,26.10
2023-05-10T18:47:09.625Z,5.70
2023-05-10T18:49:37.722Z,12.05
2023-05-10T18:52:05.923Z,11.90
2023-05-10T18:54:34.348Z,10.75
2023-05-10T18:57:02.412Z,6.53
2023-05-10T18:59:31.044Z,6.57
2023-05-10T19:01:59.252Z,6.88
2023-05-10T19:04:27.376Z,9.68
2023-05-10T19:06:56.142Z,6.15
2023-05-10T19:09:24.536Z,9.65
2023-05-10T19:11:52.758Z,12.30
2023-05-10T19:14:21.788Z,37.60
2023-05-10T19:16:49.596Z,57.25
2023-05-10T19:19:18.124Z,42.50
2023-05-10T19:21:45.935Z,14.02
2023-05-10T19:24:14.679Z,12.98
2023-05-10T19:26:42.574Z,8.98
2023-05-10T19:29:11.141Z,12.32
2023-05-10T19:31:39.752Z,14.85
2023-05-10T19:34:09.210Z,14.05
2023-05-10T19:36:37.198Z,18.98
2023-05-10T19:39:38.201Z,10.73
2023-05-10T19:43:18.632Z,18.77
2023-05-10T19:46:26.025Z,18.83
2023-05-10T19:49:34.195Z,23.08
2023-05-10T19:52:43.472Z,18.55
2023-05-10T19:55:54.962Z,10.02
2023-05-10T19:59:16.840Z,15.10
2023-05-10T20:02:27.945Z,8.82
2023-05-10T20:05:31.481Z,8.30
2023-05-10T20:08:28.441Z,11.13
2023-05-10T20:11:32.707Z,11.48
2023-05-10T20:14:32.949Z,12.30
2023-05-10T20:17:40.064Z,13.68
2023-05-10T20:21:04.995Z,14.10
2023-05-10T20:24:14.402Z,12.85
2023-05-10T20:27:52.000Z,18.98
2023-05-10T20:33:29.985Z,10.38
2023-05-10T20:36:15.282Z,8.73
2023-05-10T20:38:43.555Z,11.60
2023-05-10T20:41:12.597Z,15.10
2023-05-10T20:43:40.546Z,10.90
2023-05-10T20:46:09.387Z,14.00
2023-05-10T20:48:37.771Z,11.00
2023-05-10T20:51:06.401Z,16.35
2023-05-10T20:53:34.210Z,13.27
2023-05-10T20:56:02.744Z,11.88
2023-05-10T20:58:48.948Z,12.27
2023-05-10T21:01:34.862Z,14.98
2023-05-10T21:04:04.098Z,12.48
2023-05-10T21:06:32.691Z,12.07
2023-05-10T21:09:00.525Z,11.85
2023-05-10T21:11:29.013Z,15.75
2023-05-10T21:13:57.911Z,17.95
2023-05-10T21:16:27.362Z,15.02
2023-05-10T21:18:56.163Z,12.15
2023-05-10T21:21:24.903Z,16.73
2023-05-10T21:23:52.831Z,18.45
2023-05-10T21:26:21.848Z,13.38
2023-05-10T21:28:50.198Z,15.20
2023-05-10T21:31:18.836Z,14.85
2023-05-10T21:33:47.191Z,15.05
2023-05-10T21:36:15.609Z,17.23
2023-05-10T21:38:45.154Z,14.25
2023-05-10T21:41:13.618Z,13.07
2023-05-10T21:43:41.648Z,18.15
2023-05-10T21:46:10.411Z,12.82
2023-05-10T21:48:38.164Z,11.70
2023-05-10T21:51:06.823Z,11.55
2023-05-10T21:53:37.349Z,16.30
2023-05-10T21:56:07.502Z,16.05
2023-05-10T21:58:35.792Z,11.45
2023-05-10T22:01:04.679Z,20.38
2023-05-10T22:03:33.137Z,16.17
2023-05-10T22:06:01.865Z,10.02
2023-05-10T22:08:29.766Z,13.05
2023-05-10T22:10:57.668Z,14.38
2023-05-10T22:13:26.409Z,9.60
2023-05-10T22:15:54.798Z,11.05
2023-05-10T22:18:23.129Z,9.98
2023-05-10T22:20:51.990Z,9.25
2023-05-10T22:23:20.175Z,10.65
2023-05-10T22:25:49.185Z,7.05
2023-05-10T22:28:17.102Z,10.80
2023-05-10T22:30:46.893Z,11.55
2023-05-10T22:33:17.160Z,10.23
2023-05-10T22:35:45.590Z,7.22
2023-05-10T22:38:12.962Z,8.77
2023-05-10T22:40:42.476Z,6.70
2023-05-10T22:43:10.469Z,8.75
2023-05-10T22:45:38.883Z,7.40
2023-05-10T22:48:07.302Z,10.75
2023-05-10T22:50:37.310Z,11.00
2023-05-10T22:53:05.315Z,7.72
2023-05-10T22:55:33.689Z,6.78
2023-05-10T22:58:02.030Z,8.73
2023-05-10T23:00:30.274Z,10.57
2023-05-10T23:02:58.286Z,6.50
2023-05-10T23:05:27.194Z,8.40
2023-05-10T23:07:55.054Z,7.00
2023-05-10T23:10:22.833Z,12.50
2023-05-10T23:12:50.587Z,7.80
2023-05-10T23:15:18.801Z,6.40
2023-05-10T23:17:53.990Z,5.70
2023-05-10T23:20:23.481Z,8.00
2023-05-10T23:22:51.052Z,5.40
2023-05-10T23:25:18.847Z,5.70
2023-05-10T23:27:46.454Z,7.70
2023-05-10T23:30:15.016Z,7.90
2023-05-10T23:32:42.946Z,8.30
2023-05-10T23:35:11.579Z,7.13
2023-05-10T23:37:39.117Z,6.15
2023-05-10T23:40:08.840Z,6.82
2023-05-10T23:42:36.727Z,9.73
2023-05-10T23:45:05.214Z,5.32
2023-05-10T23:47:33.090Z,6.38
2023-05-10T23:50:01.149Z,8.40
2023-05-10T23:52:28.959Z,8.35
2023-05-10T23:54:57.422Z,7.68
2023-05-10T23:57:25.048Z,4.93
2023-05-10T23:59:53.089Z,4.05
